sensor_id;sensor_type;location;lat;lon;timestamp;P1;durP1;ratioP1;P2;durP2;ratioP2
59970;SDS011;45825;45.434;9.116;2023-04-01T00:01:57;17.38;;;14.02;;
59970;SDS011;45825;45.434;9.116;2023-04-01T00:04:22;16.98;;;13.98;;
59970;SDS011;45825;45.434;9.116;2023-04-01T00:06:48;15.02;;;13.00;;
59970;SDS011;45825;45.434;9.116;2023-04-01T00:09:13;16.40;;;13.40;;
59970;SDS011;45825;45.434;9.116;2023-04-01T00:11:39;17.05;;;13.30;;
59970;SDS011;45825;45.434;9.116;2023-04-01T00:14:05;16.23;;;13.60;;
59970;SDS011;45825;45.434;9.116;2023-04-01T00:16:31;14.90;;;13.00;;
59970;SDS011;45825;45.434;9.116;2023-04-01T00:18:56;17.33;;;13.20;;
59970;SDS011;45825;45.434;9.116;2023-04-01T00:21:21;15.10;;;12.27;;
59970;SDS011;45825;45.434;9.116;2023-04-01T00:23:48;15.07;;;12.25;;
59970;SDS011;45825;45.434;9.116;2023-04-01T00:26:14;16.65;;;12.80;;
59970;SDS011;45825;45.434;9.116;2023-04-01T00:28:43;13.38;;;10.68;;
59970;SDS011;45825;45.434;9.116;2023-04-01T00:31:09;13.82;;;11.18;;
59970;SDS011;45825;45.434;9.116;2023-04-01T00:33:35;13.98;;;10.57;;
59970;SDS011;45825;45.434;9.116;2023-04-01T00:36:05;13.27;;;10.32;;
59970;SDS011;45825;45.434;9.116;2023-04-01T00:38:38;13.50;;;9.13;;
59970;SDS011;45825;45.434;9.116;2023-04-01T00:41:04;13.75;;;10.25;;
59970;SDS011;45825;45.434;9.116;2023-04-01T00:43:30;13.07;;;9.45;;
59970;SDS011;45825;45.434;9.116;2023-04-01T00:45:56;12.70;;;10.00;;
59970;SDS011;45825;45.434;9.116;2023-04-01T00:48:23;13.27;;;9.40;;
59970;SDS011;45825;45.434;9.116;2023-04-01T00:50:54;11.02;;;9.48;;
59970;SDS011;45825;45.434;9.116;2023-04-01T00:53:24;11.60;;;8.63;;
59970;SDS011;45825;45.434;9.116;2023-04-01T00:55:58;12.55;;;9.43;;
59970;SDS011;45825;45.434;9.116;2023-04-01T00:58:29;12.25;;;9.48;;
59970;SDS011;45825;45.434;9.116;2023-04-01T01:00:58;12.55;;;9.88;;
59970;SDS011;45825;45.434;9.116;2023-04-01T01:03:24;14.75;;;9.55;;
59970;SDS011;45825;45.434;9.116;2023-04-01T01:05:58;13.38;;;9.18;;
59970;SDS011;45825;45.434;9.116;2023-04-01T01:11:05;13.60;;;9.98;;
59970;SDS011;45825;45.434;9.116;2023-04-01T01:13:40;11.23;;;8.80;;
59970;SDS011;45825;45.434;9.116;2023-04-01T01:16:26;11.70;;;8.80;;
59970;SDS011;45825;45.434;9.116;2023-04-01T01:18:58;12.52;;;9.43;;
59970;SDS011;45825;45.434;9.116;2023-04-01T01:27:03;13.98;;;9.80;;
59970;SDS011;45825;45.434;9.116;2023-04-01T01:32:39;12.32;;;9.65;;
59970;SDS011;45825;45.434;9.116;2023-04-01T01:38:10;12.48;;;9.55;;
59970;SDS011;45825;45.434;9.116;2023-04-01T01:40:39;13.93;;;10.00;;
59970;SDS011;45825;45.434;9.116;2023-04-01T01:43:10;13.75;;;10.10;;
59970;SDS011;45825;45.434;9.116;2023-04-01T01:45:40;15.13;;;11.18;;
59970;SDS011;45825;45.434;9.116;2023-04-01T01:48:09;15.05;;;11.98;;
59970;SDS011;45825;45.434;9.116;2023-04-01T01:50:36;17.75;;;13.02;;
59970;SDS011;45825;45.434;9.116;2023-04-01T01:53:08;19.50;;;13.00;;
59970;SDS011;45825;45.434;9.116;2023-04-01T01:55:36;18.58;;;13.05;;
59970;SDS011;45825;45.434;9.116;2023-04-01T01:58:13;19.67;;;14.73;;
59970;SDS011;45825;45.434;9.116;2023-04-01T02:00:52;18.27;;;13.93;;
59970;SDS011;45825;45.434;9.116;2023-04-01T02:03:21;17.65;;;14.55;;
59970;SDS011;45825;45.434;9.116;2023-04-01T02:05:50;18.17;;;13.95;;
59970;SDS011;45825;45.434;9.116;2023-04-01T02:08:23;19.70;;;14.23;;
59970;SDS011;45825;45.434;9.116;2023-04-01T02:10:58;17.50;;;14.07;;
59970;SDS011;45825;45.434;9.116;2023-04-01T02:13:30;17.55;;;14.43;;
59970;SDS011;45825;45.434;9.116;2023-04-01T02:16:05;19.90;;;14.13;;
59970;SDS011;45825;45.434;9.116;2023-04-01T02:18:36;17.88;;;13.25;;
59970;SDS011;45825;45.434;9.116;2023-04-01T02:21:03;18.58;;;13.63;;
59970;SDS011;45825;45.434;9.116;2023-04-01T02:23:31;15.60;;;12.68;;
59970;SDS011;45825;45.434;9.116;2023-04-01T02:25:59;15.13;;;12.05;;
59970;SDS011;45825;45.434;9.116;2023-04-01T02:28:25;16.17;;;12.02;;
59970;SDS011;45825;45.434;9.116;2023-04-01T02:30:53;15.93;;;11.18;;
59970;SDS011;45825;45.434;9.116;2023-04-01T02:33:19;15.70;;;10.50;;
59970;SDS011;45825;45.434;9.116;2023-04-01T02:35:45;13.68;;;10.20;;
59970;SDS011;45825;45.434;9.116;2023-04-01T02:38:11;12.65;;;10.68;;
59970;SDS011;45825;45.434;9.116;2023-04-01T02:40:43;13.45;;;10.10;;
59970;SDS011;45825;45.434;9.116;2023-04-01T02:43:11;12.65;;;9.90;;
59970;SDS011;45825;45.434;9.116;2023-04-01T02:45:37;14.27;;;10.13;;
59970;SDS011;45825;45.434;9.116;2023-04-01T02:48:02;14.35;;;9.95;;
59970;SDS011;45825;45.434;9.116;2023-04-01T02:50:27;12.75;;;10.02;;
59970;SDS011;45825;45.434;9.116;2023-04-01T02:52:53;13.90;;;10.68;;
59970;SDS011;45825;45.434;9.116;2023-04-01T02:55:18;14.88;;;10.52;;
59970;SDS011;45825;45.434;9.116;2023-04-01T02:57:43;14.68;;;10.40;;
59970;SDS011;45825;45.434;9.116;2023-04-01T03:00:09;14.05;;;11.18;;
59970;SDS011;45825;45.434;9.116;2023-04-01T03:02:36;15.88;;;11.38;;
59970;SDS011;45825;45.434;9.116;2023-04-01T03:05:03;12.82;;;10.20;;
59970;SDS011;45825;45.434;9.116;2023-04-01T03:07:29;12.63;;;9.55;;
59970;SDS011;45825;45.434;9.116;2023-04-01T03:09:54;13.90;;;9.52;;
59970;SDS011;45825;45.434;9.116;2023-04-01T03:12:20;14.90;;;10.05;;
59970;SDS011;45825;45.434;9.116;2023-04-01T03:14:45;11.95;;;9.68;;
59970;SDS011;45825;45.434;9.116;2023-04-01T03:17:10;13.52;;;9.63;;
59970;SDS011;45825;45.434;9.116;2023-04-01T03:19:35;12.02;;;9.38;;
59970;SDS011;45825;45.434;9.116;2023-04-01T03:22:01;12.32;;;9.48;;
59970;SDS011;45825;45.434;9.116;2023-04-01T03:24:26;11.98;;;9.23;;
59970;SDS011;45825;45.434;9.116;2023-04-01T03:26:51;13.48;;;9.95;;
59970;SDS011;45825;45.434;9.116;2023-04-01T03:29:17;12.75;;;9.52;;
59970;SDS011;45825;45.434;9.116;2023-04-01T03:31:42;12.75;;;9.75;;
59970;SDS011;45825;45.434;9.116;2023-04-01T03:34:08;12.15;;;9.55;;
59970;SDS011;45825;45.434;9.116;2023-04-01T03:36:33;14.25;;;9.63;;
59970;SDS011;45825;45.434;9.116;2023-04-01T03:38:59;12.15;;;8.57;;
59970;SDS011;45825;45.434;9.116;2023-04-01T03:41:24;11.77;;;8.85;;
59970;SDS011;45825;45.434;9.116;2023-04-01T03:43:50;11.70;;;8.35;;
59970;SDS011;45825;45.434;9.116;2023-04-01T03:46:19;11.82;;;8.35;;
59970;SDS011;45825;45.434;9.116;2023-04-01T03:48:45;11.15;;;7.57;;
59970;SDS011;45825;45.434;9.116;2023-04-01T03:51:10;11.90;;;7.85;;
59970;SDS011;45825;45.434;9.116;2023-04-01T03:53:36;10.75;;;7.78;;
59970;SDS011;45825;45.434;9.116;2023-04-01T03:56:07;12.18;;;7.80;;
59970;SDS011;45825;45.434;9.116;2023-04-01T03:58:33;11.95;;;8.23;;
59970;SDS011;45825;45.434;9.116;2023-04-01T04:00:59;11.27;;;7.75;;
59970;SDS011;45825;45.434;9.116;2023-04-01T04:03:25;9.68;;;7.60;;
59970;SDS011;45825;45.434;9.116;2023-04-01T04:05:51;11.18;;;7.38;;
59970;SDS011;45825;45.434;9.116;2023-04-01T04:08:16;9.38;;;7.10;;
59970;SDS011;45825;45.434;9.116;2023-04-01T04:10:42;11.30;;;7.15;;
59970;SDS011;45825;45.434;9.116;2023-04-01T04:13:07;11.05;;;7.28;;
59970;SDS011;45825;45.434;9.116;2023-04-01T04:15:33;9.30;;;7.03;;
59970;SDS011;45825;45.434;9.116;2023-04-01T04:17:58;10.05;;;7.05;;
59970;SDS011;45825;45.434;9.116;2023-04-01T04:20:23;9.20;;;7.38;;
59970;SDS011;45825;45.434;9.116;2023-04-01T04:22:49;10.43;;;7.50;;
59970;SDS011;45825;45.434;9.116;2023-04-01T04:25:14;11.27;;;8.05;;
59970;SDS011;45825;45.434;9.116;2023-04-01T04:27:40;10.43;;;7.32;;
59970;SDS011;45825;45.434;9.116;2023-04-01T04:30:06;10.82;;;7.22;;
59970;SDS011;45825;45.434;9.116;2023-04-01T04:32:32;11.18;;;7.35;;
59970;SDS011;45825;45.434;9.116;2023-04-01T04:34:58;10.43;;;6.88;;
59970;SDS011;45825;45.434;9.116;2023-04-01T04:37:23;11.07;;;7.50;;
59970;SDS011;45825;45.434;9.116;2023-04-01T04:39:48;10.32;;;6.85;;
59970;SDS011;45825;45.434;9.116;2023-04-01T04:42:14;10.73;;;7.68;;
59970;SDS011;45825;45.434;9.116;2023-04-01T04:44:40;10.65;;;7.45;;
59970;SDS011;45825;45.434;9.116;2023-04-01T04:47:06;10.20;;;7.55;;
59970;SDS011;45825;45.434;9.116;2023-04-01T04:49:31;12.07;;;7.32;;
59970;SDS011;45825;45.434;9.116;2023-04-01T04:51:56;9.90;;;7.00;;
59970;SDS011;45825;45.434;9.116;2023-04-01T04:54:21;11.77;;;7.78;;
59970;SDS011;45825;45.434;9.116;2023-04-01T04:56:47;9.40;;;6.50;;
59970;SDS011;45825;45.434;9.116;2023-04-01T04:59:12;11.35;;;6.97;;
59970;SDS011;45825;45.434;9.116;2023-04-01T05:01:38;10.10;;;7.57;;
59970;SDS011;45825;45.434;9.116;2023-04-01T05:04:03;12.00;;;7.63;;
59970;SDS011;45825;45.434;9.116;2023-04-01T05:06:28;10.32;;;6.80;;
59970;SDS011;45825;45.434;9.116;2023-04-01T05:08:57;9.98;;;6.93;;
59970;SDS011;45825;45.434;9.116;2023-04-01T05:11:22;10.98;;;7.25;;
59970;SDS011;45825;45.434;9.116;2023-04-01T05:13:48;9.82;;;6.97;;
59970;SDS011;45825;45.434;9.116;2023-04-01T05:16:17;9.73;;;7.00;;
59970;SDS011;45825;45.434;9.116;2023-04-01T05:18:44;10.85;;;7.07;;
59970;SDS011;45825;45.434;9.116;2023-04-01T05:21:10;10.02;;;7.00;;
59970;SDS011;45825;45.434;9.116;2023-04-01T05:23:38;9.77;;;6.57;;
59970;SDS011;45825;45.434;9.116;2023-04-01T05:26:05;10.23;;;6.93;;
59970;SDS011;45825;45.434;9.116;2023-04-01T05:28:31;9.95;;;6.93;;
59970;SDS011;45825;45.434;9.116;2023-04-01T05:30:58;10.70;;;7.55;;
59970;SDS011;45825;45.434;9.116;2023-04-01T05:33:24;10.55;;;6.90;;
59970;SDS011;45825;45.434;9.116;2023-04-01T05:35:49;11.82;;;7.50;;
59970;SDS011;45825;45.434;9.116;2023-04-01T05:38:15;10.82;;;7.38;;
59970;SDS011;45825;45.434;9.116;2023-04-01T05:40:41;12.38;;;7.43;;
59970;SDS011;45825;45.434;9.116;2023-04-01T05:43:06;10.32;;;7.18;;
59970;SDS011;45825;45.434;9.116;2023-04-01T05:45:32;11.60;;;7.57;;
59970;SDS011;45825;45.434;9.116;2023-04-01T05:47:58;13.30;;;8.25;;
59970;SDS011;45825;45.434;9.116;2023-04-01T05:50:25;11.85;;;7.45;;
59970;SDS011;45825;45.434;9.116;2023-04-01T05:52:50;11.48;;;7.30;;
59970;SDS011;45825;45.434;9.116;2023-04-01T05:55:17;11.65;;;6.88;;
59970;SDS011;45825;45.434;9.116;2023-04-01T05:57:44;10.30;;;7.40;;
59970;SDS011;45825;45.434;9.116;2023-04-01T06:00:10;11.35;;;7.32;;
59970;SDS011;45825;45.434;9.116;2023-04-01T06:02:36;11.30;;;7.13;;
59970;SDS011;45825;45.434;9.116;2023-04-01T06:05:09;12.43;;;7.72;;
59970;SDS011;45825;45.434;9.116;2023-04-01T06:07:47;9.48;;;7.15;;
59970;SDS011;45825;45.434;9.116;2023-04-01T06:10:19;12.73;;;7.60;;
59970;SDS011;45825;45.434;9.116;2023-04-01T06:15:53;10.27;;;7.40;;
59970;SDS011;45825;45.434;9.116;2023-04-01T06:26:33;10.43;;;7.65;;
59970;SDS011;45825;45.434;9.116;2023-04-01T06:29:23;11.50;;;8.00;;
59970;SDS011;45825;45.434;9.116;2023-04-01T06:32:23;14.25;;;8.13;;
59970;SDS011;45825;45.434;9.116;2023-04-01T06:46:09;9.93;;;7.20;;
59970;SDS011;45825;45.434;9.116;2023-04-01T06:49:17;10.85;;;7.18;;
59970;SDS011;45825;45.434;9.116;2023-04-01T06:54:42;9.55;;;6.13;;
59970;SDS011;45825;45.434;9.116;2023-04-01T06:57:29;10.18;;;6.55;;
59970;SDS011;45825;45.434;9.116;2023-04-01T07:00:00;8.40;;;6.07;;
59970;SDS011;45825;45.434;9.116;2023-04-01T07:02:34;12.55;;;6.32;;
59970;SDS011;45825;45.434;9.116;2023-04-01T07:05:06;10.48;;;6.07;;
59970;SDS011;45825;45.434;9.116;2023-04-01T07:07:36;9.02;;;5.13;;
59970;SDS011;45825;45.434;9.116;2023-04-01T07:10:12;7.43;;;4.90;;
59970;SDS011;45825;45.434;9.116;2023-04-01T07:12:43;9.07;;;5.03;;
59970;SDS011;45825;45.434;9.116;2023-04-01T07:15:27;7.93;;;5.13;;
59970;SDS011;45825;45.434;9.116;2023-04-01T07:18:06;8.15;;;5.10;;
59970;SDS011;45825;45.434;9.116;2023-04-01T07:20:38;10.95;;;4.50;;
59970;SDS011;45825;45.434;9.116;2023-04-01T07:23:05;9.02;;;4.70;;
59970;SDS011;45825;45.434;9.116;2023-04-01T07:25:37;7.18;;;5.05;;
59970;SDS011;45825;45.434;9.116;2023-04-01T07:28:10;8.93;;;4.90;;
59970;SDS011;45825;45.434;9.116;2023-04-01T07:33:16;7.63;;;4.20;;
59970;SDS011;45825;45.434;9.116;2023-04-01T07:38:37;7.05;;;4.28;;
59970;SDS011;45825;45.434;9.116;2023-04-01T07:49:22;9.10;;;4.80;;
59970;SDS011;45825;45.434;9.116;2023-04-01T07:54:25;8.38;;;4.88;;
59970;SDS011;45825;45.434;9.116;2023-04-01T07:57:00;10.48;;;5.32;;
59970;SDS011;45825;45.434;9.116;2023-04-01T07:59:55;8.05;;;5.47;;
59970;SDS011;45825;45.434;9.116;2023-04-01T08:02:41;8.98;;;5.32;;
59970;SDS011;45825;45.434;9.116;2023-04-01T08:13:16;8.57;;;4.97;;
59970;SDS011;45825;45.434;9.116;2023-04-01T08:16:02;8.27;;;4.70;;
59970;SDS011;45825;45.434;9.116;2023-04-01T08:21:17;7.75;;;4.10;;
59970;SDS011;45825;45.434;9.116;2023-04-01T08:23:49;6.80;;;3.97;;
59970;SDS011;45825;45.434;9.116;2023-04-01T08:26:27;7.85;;;4.22;;
59970;SDS011;45825;45.434;9.116;2023-04-01T08:28:59;8.70;;;4.20;;
59970;SDS011;45825;45.434;9.116;2023-04-01T08:31:33;8.82;;;3.70;;
59970;SDS011;45825;45.434;9.116;2023-04-01T08:34:04;5.60;;;3.28;;
59970;SDS011;45825;45.434;9.116;2023-04-01T08:36:43;10.95;;;7.30;;
59970;SDS011;45825;45.434;9.116;2023-04-01T08:39:16;17.25;;;5.00;;
59970;SDS011;45825;45.434;9.116;2023-04-01T08:47:30;8.30;;;4.13;;
59970;SDS011;45825;45.434;9.116;2023-04-01T08:58:37;7.75;;;5.07;;
59970;SDS011;45825;45.434;9.116;2023-04-01T09:06:35;7.72;;;4.43;;
59970;SDS011;45825;45.434;9.116;2023-04-01T09:12:12;7.25;;;4.18;;
59970;SDS011;45825;45.434;9.116;2023-04-01T09:15:12;7.55;;;3.97;;
59970;SDS011;45825;45.434;9.116;2023-04-01T09:17:55;10.10;;;3.92;;
59970;SDS011;45825;45.434;9.116;2023-04-01T09:20:39;8.10;;;4.30;;
59970;SDS011;45825;45.434;9.116;2023-04-01T09:23:33;7.05;;;4.45;;
59970;SDS011;45825;45.434;9.116;2023-04-01T09:29:02;7.68;;;4.40;;
59970;SDS011;45825;45.434;9.116;2023-04-01T09:31:39;7.35;;;4.80;;
59970;SDS011;45825;45.434;9.116;2023-04-01T09:42:42;7.50;;;4.25;;
59970;SDS011;45825;45.434;9.116;2023-04-01T09:45:13;10.38;;;4.30;;
59970;SDS011;45825;45.434;9.116;2023-04-01T09:50:46;7.90;;;3.72;;
59970;SDS011;45825;45.434;9.116;2023-04-01T10:07:41;6.25;;;3.22;;
59970;SDS011;45825;45.434;9.116;2023-04-01T10:24:42;5.97;;;2.35;;
59970;SDS011;45825;45.434;9.116;2023-04-01T10:58:03;3.85;;;1.52;;
59970;SDS011;45825;45.434;9.116;2023-04-01T11:00:42;5.70;;;2.00;;
59970;SDS011;45825;45.434;9.116;2023-04-01T11:12:21;2.70;;;1.13;;
59970;SDS011;45825;45.434;9.116;2023-04-01T11:17:53;3.05;;;1.25;;
59970;SDS011;45825;45.434;9.116;2023-04-01T11:33:44;1.67;;;0.80;;
59970;SDS011;45825;45.434;9.116;2023-04-01T11:39:13;3.33;;;0.70;;
59970;SDS011;45825;45.434;9.116;2023-04-01T11:41:56;1.70;;;0.55;;
59970;SDS011;45825;45.434;9.116;2023-04-01T11:44:35;1.35;;;0.70;;
59970;SDS011;45825;45.434;9.116;2023-04-01T12:15:44;0.90;;;0.40;;
59970;SDS011;45825;45.434;9.116;2023-04-01T12:21:14;1.52;;;0.30;;
59970;SDS011;45825;45.434;9.116;2023-04-01T12:32:40;0.75;;;0.30;;
59970;SDS011;45825;45.434;9.116;2023-04-01T12:44:36;0.35;;;0.28;;
59970;SDS011;45825;45.434;9.116;2023-04-01T12:56:09;2.03;;;0.20;;
59970;SDS011;45825;45.434;9.116;2023-04-01T12:58:57;0.60;;;0.40;;
59970;SDS011;45825;45.434;9.116;2023-04-01T13:18:24;0.75;;;0.30;;
59970;SDS011;45825;45.434;9.116;2023-04-01T13:21:16;1.05;;;0.30;;
59970;SDS011;45825;45.434;9.116;2023-04-01T13:29:25;2.55;;;0.40;;
59970;SDS011;45825;45.434;9.116;2023-04-01T13:32:11;1.40;;;0.30;;
59970;SDS011;45825;45.434;9.116;2023-04-01T13:40:17;0.65;;;0.40;;
59970;SDS011;45825;45.434;9.116;2023-04-01T13:46:15;2.80;;;0.50;;
59970;SDS011;45825;45.434;9.116;2023-04-01T13:56:55;0.38;;;0.28;;
59970;SDS011;45825;45.434;9.116;2023-04-01T14:12:58;0.63;;;0.20;;
59970;SDS011;45825;45.434;9.116;2023-04-01T14:31:59;1.42;;;0.30;;
59970;SDS011;45825;45.434;9.116;2023-04-01T14:37:23;0.70;;;0.40;;
59970;SDS011;45825;45.434;9.116;2023-04-01T14:40:14;0.93;;;0.40;;
59970;SDS011;45825;45.434;9.116;2023-04-01T14:48:29;4.70;;;0.55;;
59970;SDS011;45825;45.434;9.116;2023-04-01T14:51:10;0.30;;;0.30;;
59970;SDS011;45825;45.434;9.116;2023-04-01T14:59:29;2.00;;;0.30;;
59970;SDS011;45825;45.434;9.116;2023-04-01T15:04:58;1.27;;;0.38;;
59970;SDS011;45825;45.434;9.116;2023-04-01T15:24:14;0.82;;;0.30;;
59970;SDS011;45825;45.434;9.116;2023-04-01T15:26:53;0.63;;;0.22;;
59970;SDS011;45825;45.434;9.116;2023-04-01T15:32:07;1.58;;;0.38;;
59970;SDS011;45825;45.434;9.116;2023-04-01T15:37:56;0.95;;;0.35;;
59970;SDS011;45825;45.434;9.116;2023-04-01T15:40:46;1.23;;;0.35;;
59970;SDS011;45825;45.434;9.116;2023-04-01T15:43:27;2.08;;;0.40;;
59970;SDS011;45825;45.434;9.116;2023-04-01T15:51:58;1.20;;;0.38;;
59970;SDS011;45825;45.434;9.116;2023-04-01T16:05:37;0.55;;;0.30;;
59970;SDS011;45825;45.434;9.116;2023-04-01T16:08:23;0.77;;;0.40;;
59970;SDS011;45825;45.434;9.116;2023-04-01T16:11:24;0.98;;;0.28;;
59970;SDS011;45825;45.434;9.116;2023-04-01T16:17:00;0.65;;;0.30;;
59970;SDS011;45825;45.434;9.116;2023-04-01T16:22:31;0.43;;;0.22;;
59970;SDS011;45825;45.434;9.116;2023-04-01T16:27:56;0.65;;;0.40;;
59970;SDS011;45825;45.434;9.116;2023-04-01T16:30:48;0.80;;;0.30;;
59970;SDS011;45825;45.434;9.116;2023-04-01T16:39:22;0.75;;;0.40;;
59970;SDS011;45825;45.434;9.116;2023-04-01T16:44:21;0.60;;;0.27;;
59970;SDS011;45825;45.434;9.116;2023-04-01T16:46:50;1.30;;;0.43;;
59970;SDS011;45825;45.434;9.116;2023-04-01T16:49:25;1.80;;;0.60;;
59970;SDS011;45825;45.434;9.116;2023-04-01T16:54:39;1.02;;;0.50;;
59970;SDS011;45825;45.434;9.116;2023-04-01T17:02:14;1.35;;;0.50;;
59970;SDS011;45825;45.434;9.116;2023-04-01T17:07:46;4.00;;;1.13;;
59970;SDS011;45825;45.434;9.116;2023-04-01T17:16:00;4.53;;;1.70;;
59970;SDS011;45825;45.434;9.116;2023-04-01T17:18:39;5.82;;;2.70;;
59970;SDS011;45825;45.434;9.116;2023-04-01T17:24:29;4.45;;;2.22;;
59970;SDS011;45825;45.434;9.116;2023-04-01T17:35:28;1.98;;;0.80;;
59970;SDS011;45825;45.434;9.116;2023-04-01T17:40:41;2.55;;;0.80;;
59970;SDS011;45825;45.434;9.116;2023-04-01T17:43:14;2.15;;;0.88;;
59970;SDS011;45825;45.434;9.116;2023-04-01T17:45:56;2.88;;;0.90;;
59970;SDS011;45825;45.434;9.116;2023-04-01T17:48:31;2.08;;;0.90;;
59970;SDS011;45825;45.434;9.116;2023-04-01T17:59:38;4.32;;;1.30;;
59970;SDS011;45825;45.434;9.116;2023-04-01T18:05:14;4.68;;;1.40;;
59970;SDS011;45825;45.434;9.116;2023-04-01T18:08:06;2.58;;;1.30;;
59970;SDS011;45825;45.434;9.116;2023-04-01T18:24:02;3.13;;;1.15;;
59970;SDS011;45825;45.434;9.116;2023-04-01T18:26:39;5.00;;;1.60;;
59970;SDS011;45825;45.434;9.116;2023-04-01T18:32:01;7.25;;;2.10;;
59970;SDS011;45825;45.434;9.116;2023-04-01T18:37:40;6.60;;;1.80;;
59970;SDS011;45825;45.434;9.116;2023-04-01T18:42:57;4.05;;;1.70;;
59970;SDS011;45825;45.434;9.116;2023-04-01T18:45:37;5.28;;;1.95;;
59970;SDS011;45825;45.434;9.116;2023-04-01T18:51:14;5.18;;;1.90;;
59970;SDS011;45825;45.434;9.116;2023-04-01T18:54:02;7.78;;;2.42;;
59970;SDS011;45825;45.434;9.116;2023-04-01T18:56:40;5.32;;;2.22;;
59970;SDS011;45825;45.434;9.116;2023-04-01T19:04:36;5.00;;;1.90;;
59970;SDS011;45825;45.434;9.116;2023-04-01T19:10:07;5.97;;;2.00;;
59970;SDS011;45825;45.434;9.116;2023-04-01T19:15:24;6.13;;;2.50;;
59970;SDS011;45825;45.434;9.116;2023-04-01T19:18:08;5.85;;;2.45;;
59970;SDS011;45825;45.434;9.116;2023-04-01T19:21:00;4.93;;;2.20;;
59970;SDS011;45825;45.434;9.116;2023-04-01T19:27:14;6.55;;;2.13;;
59970;SDS011;45825;45.434;9.116;2023-04-01T19:38:00;6.10;;;2.20;;
59970;SDS011;45825;45.434;9.116;2023-04-01T19:40:34;5.97;;;2.13;;
59970;SDS011;45825;45.434;9.116;2023-04-01T19:43:09;6.10;;;2.40;;
59970;SDS011;45825;45.434;9.116;2023-04-01T19:48:33;5.60;;;2.03;;
59970;SDS011;45825;45.434;9.116;2023-04-01T19:57:20;6.32;;;2.30;;
59970;SDS011;45825;45.434;9.116;2023-04-01T20:00:20;7.65;;;2.30;;
59970;SDS011;45825;45.434;9.116;2023-04-01T20:05:45;5.30;;;2.55;;
59970;SDS011;45825;45.434;9.116;2023-04-01T20:08:34;6.38;;;2.50;;
59970;SDS011;45825;45.434;9.116;2023-04-01T20:19:45;7.38;;;2.20;;
59970;SDS011;45825;45.434;9.116;2023-04-01T20:24:53;4.53;;;1.77;;
59970;SDS011;45825;45.434;9.116;2023-04-01T20:27:27;5.20;;;1.98;;
59970;SDS011;45825;45.434;9.116;2023-04-01T20:32:54;3.00;;;1.10;;
59970;SDS011;45825;45.434;9.116;2023-04-01T20:35:45;3.55;;;1.38;;
59970;SDS011;45825;45.434;9.116;2023-04-01T20:44:12;3.53;;;1.30;;
59970;SDS011;45825;45.434;9.116;2023-04-01T20:49:27;3.85;;;1.35;;
59970;SDS011;45825;45.434;9.116;2023-04-01T21:00:30;4.05;;;1.60;;
59970;SDS011;45825;45.434;9.116;2023-04-01T21:08:25;3.47;;;1.27;;
59970;SDS011;45825;45.434;9.116;2023-04-01T21:19:25;3.20;;;1.20;;
59970;SDS011;45825;45.434;9.116;2023-04-01T21:24:52;2.45;;;1.38;;
59970;SDS011;45825;45.434;9.116;2023-04-01T21:27:42;5.90;;;1.50;;
59970;SDS011;45825;45.434;9.116;2023-04-01T21:38:51;2.58;;;1.20;;
59970;SDS011;45825;45.434;9.116;2023-04-01T21:44:12;4.00;;;1.35;;
59970;SDS011;45825;45.434;9.116;2023-04-01T22:00:20;4.68;;;1.33;;
59970;SDS011;45825;45.434;9.116;2023-04-01T22:06:14;2.70;;;1.10;;
59970;SDS011;45825;45.434;9.116;2023-04-01T22:11:29;3.67;;;1.00;;
59970;SDS011;45825;45.434;9.116;2023-04-01T22:16:57;3.95;;;1.38;;
59970;SDS011;45825;45.434;9.116;2023-04-01T22:19:40;4.15;;;1.42;;
59970;SDS011;45825;45.434;9.116;2023-04-01T22:30:29;5.22;;;1.20;;
59970;SDS011;45825;45.434;9.116;2023-04-01T22:35:47;3.53;;;1.10;;
59970;SDS011;45825;45.434;9.116;2023-04-01T22:43:42;4.22;;;1.40;;
59970;SDS011;45825;45.434;9.116;2023-04-01T22:54:46;2.95;;;1.20;;
59970;SDS011;45825;45.434;9.116;2023-04-01T22:59:46;3.30;;;1.27;;
59970;SDS011;45825;45.434;9.116;2023-04-01T23:02:23;3.50;;;1.20;;
59970;SDS011;45825;45.434;9.116;2023-04-01T23:04:57;2.35;;;1.23;;
59970;SDS011;45825;45.434;9.116;2023-04-01T23:07:37;3.13;;;1.20;;
59970;SDS011;45825;45.434;9.116;2023-04-01T23:10:59;4.35;;;1.27;;
59970;SDS011;45825;45.434;9.116;2023-04-01T23:13:10;2.72;;;1.30;;
59970;SDS011;45825;45.434;9.116;2023-04-01T23:15:43;5.13;;;1.60;;
59970;SDS011;45825;45.434;9.116;2023-04-01T23:18:11;3.08;;;1.30;;
59970;SDS011;45825;45.434;9.116;2023-04-01T23:21:34;3.42;;;1.50;;
59970;SDS011;45825;45.434;9.116;2023-04-01T23:26:32;3.58;;;1.60;;
59970;SDS011;45825;45.434;9.116;2023-04-01T23:29:04;3.33;;;1.38;;
59970;SDS011;45825;45.434;9.116;2023-04-01T23:36:37;4.93;;;1.90;;
59970;SDS011;45825;45.434;9.116;2023-04-01T23:39:08;4.82;;;1.90;;
59970;SDS011;45825;45.434;9.116;2023-04-01T23:41:38;4.75;;;1.80;;
59970;SDS011;45825;45.434;9.116;2023-04-01T23:44:05;5.40;;;1.88;;
59970;SDS011;45825;45.434;9.116;2023-04-01T23:46:35;5.55;;;2.00;;
59970;SDS011;45825;45.434;9.116;2023-04-01T23:49:04;4.70;;;1.90;;
59970;SDS011;45825;45.434;9.116;2023-04-01T23:51:37;4.07;;;1.58;;
59970;SDS011;45825;45.434;9.116;2023-04-01T23:54:13;3.60;;;1.95;;
59970;SDS011;45825;45.434;9.116;2023-04-01T23:56:46;6.47;;;2.30;;
59970;SDS011;45825;45.434;9.116;2023-04-01T23:59:19;5.40;;;1.77;;
